sensor_id;sensor_type;location;lat;lon;timestamp;P1;durP1;ratioP1;P2;durP2;ratioP2
71038;SDS011;58692;43.212;27.908;2022-12-04T00:02:06;16.30;;;7.57;;
71038;SDS011;58692;43.212;27.908;2022-12-04T00:04:32;15.18;;;6.65;;
71038;SDS011;58692;43.212;27.908;2022-12-04T00:06:57;14.80;;;6.60;;
71038;SDS011;58692;43.212;27.908;2022-12-04T00:09:23;17.30;;;7.00;;
71038;SDS011;58692;43.212;27.908;2022-12-04T00:11:48;16.63;;;6.87;;
71038;SDS011;58692;43.212;27.908;2022-12-04T00:14:14;17.63;;;7.60;;
71038;SDS011;58692;43.212;27.908;2022-12-04T00:16:39;18.33;;;7.53;;
71038;SDS011;58692;43.212;27.908;2022-12-04T00:19:05;17.03;;;7.23;;
71038;SDS011;58692;43.212;27.908;2022-12-04T00:21:30;17.73;;;7.30;;
71038;SDS011;58692;43.212;27.908;2022-12-04T00:23:56;18.52;;;8.00;;
71038;SDS011;58692;43.212;27.908;2022-12-04T00:26:22;17.53;;;6.87;;
71038;SDS011;58692;43.212;27.908;2022-12-04T00:28:50;18.00;;;7.32;;
71038;SDS011;58692;43.212;27.908;2022-12-04T00:31:17;18.35;;;7.78;;
71038;SDS011;58692;43.212;27.908;2022-12-04T00:33:47;18.55;;;7.57;;
71038;SDS011;58692;43.212;27.908;2022-12-04T00:36:13;17.53;;;7.40;;
71038;SDS011;58692;43.212;27.908;2022-12-04T00:38:41;20.58;;;7.72;;
71038;SDS011;58692;43.212;27.908;2022-12-04T00:41:08;16.35;;;7.07;;
71038;SDS011;58692;43.212;27.908;2022-12-04T00:43:34;17.58;;;7.03;;
71038;SDS011;58692;43.212;27.908;2022-12-04T00:46:00;17.77;;;7.40;;
71038;SDS011;58692;43.212;27.908;2022-12-04T00:48:25;16.23;;;7.03;;
71038;SDS011;58692;43.212;27.908;2022-12-04T00:50:51;18.20;;;7.90;;
71038;SDS011;58692;43.212;27.908;2022-12-04T00:53:18;17.40;;;7.97;;
71038;SDS011;58692;43.212;27.908;2022-12-04T00:55:44;17.42;;;8.07;;
71038;SDS011;58692;43.212;27.908;2022-12-04T00:58:10;18.60;;;7.70;;
71038;SDS011;58692;43.212;27.908;2022-12-04T01:00:36;16.90;;;7.85;;
71038;SDS011;58692;43.212;27.908;2022-12-04T01:03:04;17.23;;;7.20;;
71038;SDS011;58692;43.212;27.908;2022-12-04T01:05:30;19.35;;;8.15;;
71038;SDS011;58692;43.212;27.908;2022-12-04T01:07:56;18.00;;;8.13;;
71038;SDS011;58692;43.212;27.908;2022-12-04T01:10:21;19.53;;;7.43;;
71038;SDS011;58692;43.212;27.908;2022-12-04T01:12:48;17.40;;;7.80;;
71038;SDS011;58692;43.212;27.908;2022-12-04T01:15:14;19.10;;;7.50;;
71038;SDS011;58692;43.212;27.908;2022-12-04T01:17:40;15.52;;;7.53;;
71038;SDS011;58692;43.212;27.908;2022-12-04T01:20:05;17.90;;;6.93;;
71038;SDS011;58692;43.212;27.908;2022-12-04T01:22:31;17.25;;;7.70;;
71038;SDS011;58692;43.212;27.908;2022-12-04T01:24:57;16.63;;;7.10;;
71038;SDS011;58692;43.212;27.908;2022-12-04T01:27:23;20.63;;;7.90;;
71038;SDS011;58692;43.212;27.908;2022-12-04T01:29:48;16.13;;;6.97;;
71038;SDS011;58692;43.212;27.908;2022-12-04T01:32:14;17.02;;;7.15;;
71038;SDS011;58692;43.212;27.908;2022-12-04T01:34:40;20.53;;;7.73;;
71038;SDS011;58692;43.212;27.908;2022-12-04T01:37:05;16.88;;;7.50;;
71038;SDS011;58692;43.212;27.908;2022-12-04T01:39:31;19.27;;;8.00;;
71038;SDS011;58692;43.212;27.908;2022-12-04T01:41:56;19.10;;;7.23;;
71038;SDS011;58692;43.212;27.908;2022-12-04T01:44:23;19.23;;;7.38;;
71038;SDS011;58692;43.212;27.908;2022-12-04T01:46:51;17.37;;;7.20;;
71038;SDS011;58692;43.212;27.908;2022-12-04T01:49:17;17.13;;;7.28;;
71038;SDS011;58692;43.212;27.908;2022-12-04T01:52:00;16.30;;;6.90;;
71038;SDS011;58692;43.212;27.908;2022-12-04T01:54:31;15.82;;;6.22;;
71038;SDS011;58692;43.212;27.908;2022-12-04T01:57:01;16.33;;;6.63;;
71038;SDS011;58692;43.212;27.908;2022-12-04T01:59:28;16.00;;;6.10;;
71038;SDS011;58692;43.212;27.908;2022-12-04T02:01:59;15.73;;;6.60;;
71038;SDS011;58692;43.212;27.908;2022-12-04T02:04:29;19.33;;;6.78;;
71038;SDS011;58692;43.212;27.908;2022-12-04T02:06:55;16.92;;;7.22;;
71038;SDS011;58692;43.212;27.908;2022-12-04T02:09:21;19.23;;;7.73;;
71038;SDS011;58692;43.212;27.908;2022-12-04T02:11:51;19.15;;;8.10;;
71038;SDS011;58692;43.212;27.908;2022-12-04T02:17:10;20.88;;;8.50;;
71038;SDS011;58692;43.212;27.908;2022-12-04T02:25:23;19.02;;;8.23;;
71038;SDS011;58692;43.212;27.908;2022-12-04T02:30:35;18.00;;;7.15;;
71038;SDS011;58692;43.212;27.908;2022-12-04T02:33:06;16.63;;;6.87;;
71038;SDS011;58692;43.212;27.908;2022-12-04T02:35:41;18.63;;;7.35;;
71038;SDS011;58692;43.212;27.908;2022-12-04T02:38:14;16.70;;;6.45;;
71038;SDS011;58692;43.212;27.908;2022-12-04T02:40:53;15.88;;;6.32;;
71038;SDS011;58692;43.212;27.908;2022-12-04T02:43:25;16.35;;;6.75;;
71038;SDS011;58692;43.212;27.908;2022-12-04T02:45:59;16.27;;;7.10;;
71038;SDS011;58692;43.212;27.908;2022-12-04T02:48:31;15.32;;;6.57;;
71038;SDS011;58692;43.212;27.908;2022-12-04T02:51:00;18.67;;;7.43;;
71038;SDS011;58692;43.212;27.908;2022-12-04T02:53:29;21.23;;;8.25;;
71038;SDS011;58692;43.212;27.908;2022-12-04T02:56:01;23.13;;;9.10;;
71038;SDS011;58692;43.212;27.908;2022-12-04T02:58:35;21.73;;;9.50;;
71038;SDS011;58692;43.212;27.908;2022-12-04T03:01:05;19.95;;;8.38;;
71038;SDS011;58692;43.212;27.908;2022-12-04T03:03:43;16.25;;;6.88;;
71038;SDS011;58692;43.212;27.908;2022-12-04T03:06:15;19.08;;;7.28;;
71038;SDS011;58692;43.212;27.908;2022-12-04T03:08:45;15.38;;;6.00;;
71038;SDS011;58692;43.212;27.908;2022-12-04T03:11:15;16.37;;;6.00;;
71038;SDS011;58692;43.212;27.908;2022-12-04T03:13:44;14.45;;;5.47;;
71038;SDS011;58692;43.212;27.908;2022-12-04T03:16:21;15.40;;;6.78;;
71038;SDS011;58692;43.212;27.908;2022-12-04T03:18:53;17.90;;;7.72;;
71038;SDS011;58692;43.212;27.908;2022-12-04T03:21:23;19.77;;;8.07;;
71038;SDS011;58692;43.212;27.908;2022-12-04T03:23:57;20.37;;;7.93;;
71038;SDS011;58692;43.212;27.908;2022-12-04T03:26:42;18.35;;;7.63;;
71038;SDS011;58692;43.212;27.908;2022-12-04T03:29:13;18.55;;;7.57;;
71038;SDS011;58692;43.212;27.908;2022-12-04T03:31:44;18.52;;;7.88;;
71038;SDS011;58692;43.212;27.908;2022-12-04T03:34:12;21.73;;;8.95;;
71038;SDS011;58692;43.212;27.908;2022-12-04T03:36:45;22.77;;;9.93;;
71038;SDS011;58692;43.212;27.908;2022-12-04T03:42:01;29.52;;;13.50;;
71038;SDS011;58692;43.212;27.908;2022-12-04T03:44:42;37.78;;;18.80;;
71038;SDS011;58692;43.212;27.908;2022-12-04T03:52:07;34.13;;;16.67;;
71038;SDS011;58692;43.212;27.908;2022-12-04T03:54:37;28.67;;;14.00;;
71038;SDS011;58692;43.212;27.908;2022-12-04T03:57:13;26.25;;;12.38;;
71038;SDS011;58692;43.212;27.908;2022-12-04T03:59:44;26.80;;;11.98;;
71038;SDS011;58692;43.212;27.908;2022-12-04T04:02:15;23.20;;;10.68;;
71038;SDS011;58692;43.212;27.908;2022-12-04T04:04:46;23.30;;;11.00;;
71038;SDS011;58692;43.212;27.908;2022-12-04T04:07:19;22.70;;;10.07;;
71038;SDS011;58692;43.212;27.908;2022-12-04T04:09:48;25.58;;;10.55;;
71038;SDS011;58692;43.212;27.908;2022-12-04T04:12:18;19.55;;;8.45;;
71038;SDS011;58692;43.212;27.908;2022-12-04T04:17:32;16.65;;;6.88;;
71038;SDS011;58692;43.212;27.908;2022-12-04T04:20:17;19.43;;;7.73;;
71038;SDS011;58692;43.212;27.908;2022-12-04T04:23:02;18.63;;;7.57;;
71038;SDS011;58692;43.212;27.908;2022-12-04T04:25:46;18.80;;;7.45;;
71038;SDS011;58692;43.212;27.908;2022-12-04T04:31:01;21.57;;;9.10;;
71038;SDS011;58692;43.212;27.908;2022-12-04T04:33:28;19.80;;;8.05;;
71038;SDS011;58692;43.212;27.908;2022-12-04T04:35:56;18.25;;;7.78;;
71038;SDS011;58692;43.212;27.908;2022-12-04T04:38:34;17.17;;;7.28;;
71038;SDS011;58692;43.212;27.908;2022-12-04T04:43:32;16.03;;;7.47;;
71038;SDS011;58692;43.212;27.908;2022-12-04T04:48:33;18.67;;;7.70;;
71038;SDS011;58692;43.212;27.908;2022-12-04T04:51:03;20.15;;;7.97;;
71038;SDS011;58692;43.212;27.908;2022-12-04T04:53:34;18.92;;;7.70;;
71038;SDS011;58692;43.212;27.908;2022-12-04T04:56:04;18.02;;;7.60;;
71038;SDS011;58692;43.212;27.908;2022-12-04T04:58:31;16.05;;;7.55;;
71038;SDS011;58692;43.212;27.908;2022-12-04T05:00:58;15.37;;;7.33;;
71038;SDS011;58692;43.212;27.908;2022-12-04T05:03:26;15.10;;;6.78;;
71038;SDS011;58692;43.212;27.908;2022-12-04T05:05:53;15.80;;;7.90;;
71038;SDS011;58692;43.212;27.908;2022-12-04T05:08:18;18.37;;;6.80;;
71038;SDS011;58692;43.212;27.908;2022-12-04T05:10:44;16.30;;;6.63;;
71038;SDS011;58692;43.212;27.908;2022-12-04T05:13:10;15.73;;;6.70;;
71038;SDS011;58692;43.212;27.908;2022-12-04T05:15:36;16.48;;;6.78;;
71038;SDS011;58692;43.212;27.908;2022-12-04T05:18:02;17.47;;;7.93;;
71038;SDS011;58692;43.212;27.908;2022-12-04T05:20:28;16.60;;;6.90;;
71038;SDS011;58692;43.212;27.908;2022-12-04T05:22:53;15.50;;;7.17;;
71038;SDS011;58692;43.212;27.908;2022-12-04T05:25:19;17.73;;;7.28;;
71038;SDS011;58692;43.212;27.908;2022-12-04T05:27:44;15.53;;;6.70;;
71038;SDS011;58692;43.212;27.908;2022-12-04T05:30:10;12.97;;;5.23;;
71038;SDS011;58692;43.212;27.908;2022-12-04T05:32:36;14.00;;;6.40;;
71038;SDS011;58692;43.212;27.908;2022-12-04T05:35:02;15.77;;;6.60;;
71038;SDS011;58692;43.212;27.908;2022-12-04T05:37:28;15.15;;;6.15;;
71038;SDS011;58692;43.212;27.908;2022-12-04T05:39:53;16.33;;;7.57;;
71038;SDS011;58692;43.212;27.908;2022-12-04T05:42:19;15.50;;;6.17;;
71038;SDS011;58692;43.212;27.908;2022-12-04T05:44:45;14.98;;;6.43;;
71038;SDS011;58692;43.212;27.908;2022-12-04T05:47:12;19.42;;;8.63;;
71038;SDS011;58692;43.212;27.908;2022-12-04T05:49:38;13.00;;;5.93;;
71038;SDS011;58692;43.212;27.908;2022-12-04T05:52:04;14.70;;;6.17;;
71038;SDS011;58692;43.212;27.908;2022-12-04T05:54:30;12.85;;;5.90;;
71038;SDS011;58692;43.212;27.908;2022-12-04T05:56:55;14.00;;;5.93;;
71038;SDS011;58692;43.212;27.908;2022-12-04T05:59:21;16.77;;;6.90;;
71038;SDS011;58692;43.212;27.908;2022-12-04T06:01:47;14.98;;;6.13;;
71038;SDS011;58692;43.212;27.908;2022-12-04T06:04:12;14.57;;;5.97;;
71038;SDS011;58692;43.212;27.908;2022-12-04T06:06:38;13.45;;;5.68;;
71038;SDS011;58692;43.212;27.908;2022-12-04T06:09:04;13.20;;;6.07;;
71038;SDS011;58692;43.212;27.908;2022-12-04T06:11:33;13.10;;;5.75;;
71038;SDS011;58692;43.212;27.908;2022-12-04T06:14:01;13.52;;;6.05;;
71038;SDS011;58692;43.212;27.908;2022-12-04T06:16:29;14.30;;;6.32;;
71038;SDS011;58692;43.212;27.908;2022-12-04T06:18:59;13.47;;;5.70;;
71038;SDS011;58692;43.212;27.908;2022-12-04T06:21:28;16.08;;;6.63;;
71038;SDS011;58692;43.212;27.908;2022-12-04T06:23:55;18.52;;;7.90;;
71038;SDS011;58692;43.212;27.908;2022-12-04T06:26:22;18.52;;;8.40;;
71038;SDS011;58692;43.212;27.908;2022-12-04T06:28:48;14.57;;;5.60;;
71038;SDS011;58692;43.212;27.908;2022-12-04T06:31:17;14.57;;;5.97;;
71038;SDS011;58692;43.212;27.908;2022-12-04T06:33:43;14.27;;;6.00;;
71038;SDS011;58692;43.212;27.908;2022-12-04T06:36:13;12.23;;;5.90;;
71038;SDS011;58692;43.212;27.908;2022-12-04T06:38:41;11.88;;;5.47;;
71038;SDS011;58692;43.212;27.908;2022-12-04T06:41:08;11.32;;;4.97;;
71038;SDS011;58692;43.212;27.908;2022-12-04T06:43:36;12.00;;;4.80;;
71038;SDS011;58692;43.212;27.908;2022-12-04T06:46:03;8.85;;;3.95;;
71038;SDS011;58692;43.212;27.908;2022-12-04T06:48:30;10.57;;;4.30;;
71038;SDS011;58692;43.212;27.908;2022-12-04T06:50:57;10.93;;;4.63;;
71038;SDS011;58692;43.212;27.908;2022-12-04T06:53:28;12.05;;;4.70;;
71038;SDS011;58692;43.212;27.908;2022-12-04T06:55:55;11.18;;;5.00;;
71038;SDS011;58692;43.212;27.908;2022-12-04T06:58:22;14.35;;;6.18;;
71038;SDS011;58692;43.212;27.908;2022-12-04T07:00:48;14.00;;;6.33;;
71038;SDS011;58692;43.212;27.908;2022-12-04T07:03:13;13.23;;;6.20;;
71038;SDS011;58692;43.212;27.908;2022-12-04T07:05:39;12.55;;;6.25;;
71038;SDS011;58692;43.212;27.908;2022-12-04T07:08:04;13.43;;;6.17;;
71038;SDS011;58692;43.212;27.908;2022-12-04T07:10:30;8.93;;;3.70;;
71038;SDS011;58692;43.212;27.908;2022-12-04T07:12:55;9.82;;;4.15;;
71038;SDS011;58692;43.212;27.908;2022-12-04T07:15:20;8.67;;;3.67;;
71038;SDS011;58692;43.212;27.908;2022-12-04T07:17:46;9.90;;;3.87;;
71038;SDS011;58692;43.212;27.908;2022-12-04T07:20:12;9.80;;;4.10;;
71038;SDS011;58692;43.212;27.908;2022-12-04T07:22:37;9.53;;;4.30;;
71038;SDS011;58692;43.212;27.908;2022-12-04T07:25:03;9.70;;;4.63;;
71038;SDS011;58692;43.212;27.908;2022-12-04T07:27:29;12.07;;;5.78;;
71038;SDS011;58692;43.212;27.908;2022-12-04T07:29:55;12.73;;;6.18;;
71038;SDS011;58692;43.212;27.908;2022-12-04T07:32:21;11.87;;;5.47;;
71038;SDS011;58692;43.212;27.908;2022-12-04T07:34:46;15.38;;;6.78;;
71038;SDS011;58692;43.212;27.908;2022-12-04T07:37:12;13.50;;;6.87;;
71038;SDS011;58692;43.212;27.908;2022-12-04T07:39:37;13.77;;;7.13;;
71038;SDS011;58692;43.212;27.908;2022-12-04T07:42:03;10.80;;;4.75;;
71038;SDS011;58692;43.212;27.908;2022-12-04T07:44:29;9.60;;;4.27;;
71038;SDS011;58692;43.212;27.908;2022-12-04T07:46:56;8.00;;;4.00;;
71038;SDS011;58692;43.212;27.908;2022-12-04T07:49:21;16.07;;;8.80;;
71038;SDS011;58692;43.212;27.908;2022-12-04T07:51:47;16.17;;;8.00;;
71038;SDS011;58692;43.212;27.908;2022-12-04T07:54:12;18.27;;;8.77;;
71038;SDS011;58692;43.212;27.908;2022-12-04T07:56:38;15.97;;;8.70;;
71038;SDS011;58692;43.212;27.908;2022-12-04T07:59:03;11.75;;;5.45;;
71038;SDS011;58692;43.212;27.908;2022-12-04T08:01:29;10.80;;;4.80;;
71038;SDS011;58692;43.212;27.908;2022-12-04T08:03:55;13.35;;;6.47;;
71038;SDS011;58692;43.212;27.908;2022-12-04T08:06:23;11.82;;;5.32;;
71038;SDS011;58692;43.212;27.908;2022-12-04T08:08:50;8.17;;;3.53;;
71038;SDS011;58692;43.212;27.908;2022-12-04T08:11:17;8.95;;;4.10;;
71038;SDS011;58692;43.212;27.908;2022-12-04T08:13:46;11.45;;;5.47;;
71038;SDS011;58692;43.212;27.908;2022-12-04T08:16:12;11.50;;;5.65;;
71038;SDS011;58692;43.212;27.908;2022-12-04T08:18:39;13.38;;;6.70;;
71038;SDS011;58692;43.212;27.908;2022-12-04T08:21:07;14.13;;;6.37;;
71038;SDS011;58692;43.212;27.908;2022-12-04T08:23:37;11.32;;;5.65;;
71038;SDS011;58692;43.212;27.908;2022-12-04T08:26:04;12.15;;;6.32;;
71038;SDS011;58692;43.212;27.908;2022-12-04T08:28:30;11.13;;;4.60;;
71038;SDS011;58692;43.212;27.908;2022-12-04T08:31:04;9.57;;;4.57;;
71038;SDS011;58692;43.212;27.908;2022-12-04T08:33:31;12.27;;;5.27;;
71038;SDS011;58692;43.212;27.908;2022-12-04T08:35:57;10.85;;;4.55;;
71038;SDS011;58692;43.212;27.908;2022-12-04T08:38:22;10.45;;;4.50;;
71038;SDS011;58692;43.212;27.908;2022-12-04T08:40:48;9.63;;;4.47;;
71038;SDS011;58692;43.212;27.908;2022-12-04T08:43:14;8.77;;;4.53;;
71038;SDS011;58692;43.212;27.908;2022-12-04T08:45:39;9.55;;;4.90;;
71038;SDS011;58692;43.212;27.908;2022-12-04T08:48:05;9.73;;;3.97;;
71038;SDS011;58692;43.212;27.908;2022-12-04T08:50:30;9.50;;;4.75;;
71038;SDS011;58692;43.212;27.908;2022-12-04T08:52:56;10.23;;;4.93;;
71038;SDS011;58692;43.212;27.908;2022-12-04T08:55:22;10.20;;;5.17;;
71038;SDS011;58692;43.212;27.908;2022-12-04T08:57:49;10.48;;;5.22;;
71038;SDS011;58692;43.212;27.908;2022-12-04T09:00:16;10.30;;;5.45;;
71038;SDS011;58692;43.212;27.908;2022-12-04T09:02:41;13.30;;;5.73;;
71038;SDS011;58692;43.212;27.908;2022-12-04T09:05:07;11.52;;;5.32;;
71038;SDS011;58692;43.212;27.908;2022-12-04T09:07:33;9.43;;;4.83;;
71038;SDS011;58692;43.212;27.908;2022-12-04T09:09:58;10.13;;;4.75;;
71038;SDS011;58692;43.212;27.908;2022-12-04T09:12:23;9.73;;;5.40;;
71038;SDS011;58692;43.212;27.908;2022-12-04T09:14:49;11.27;;;5.20;;
71038;SDS011;58692;43.212;27.908;2022-12-04T09:17:14;9.75;;;4.68;;
71038;SDS011;58692;43.212;27.908;2022-12-04T09:19:40;11.30;;;4.77;;
71038;SDS011;58692;43.212;27.908;2022-12-04T09:22:05;10.33;;;5.20;;
71038;SDS011;58692;43.212;27.908;2022-12-04T09:24:31;9.82;;;4.60;;
71038;SDS011;58692;43.212;27.908;2022-12-04T09:26:57;9.13;;;4.40;;
71038;SDS011;58692;43.212;27.908;2022-12-04T09:29:22;8.30;;;3.83;;
71038;SDS011;58692;43.212;27.908;2022-12-04T09:31:50;12.13;;;4.20;;
71038;SDS011;58692;43.212;27.908;2022-12-04T09:34:15;10.00;;;4.60;;
71038;SDS011;58692;43.212;27.908;2022-12-04T09:36:42;9.75;;;4.55;;
71038;SDS011;58692;43.212;27.908;2022-12-04T09:39:08;9.77;;;4.53;;
71038;SDS011;58692;43.212;27.908;2022-12-04T09:44:02;9.70;;;4.10;;
71038;SDS011;58692;43.212;27.908;2022-12-04T09:46:33;10.20;;;4.45;;
71038;SDS011;58692;43.212;27.908;2022-12-04T09:49:02;7.47;;;3.75;;
71038;SDS011;58692;43.212;27.908;2022-12-04T09:51:39;9.90;;;4.28;;
71038;SDS011;58692;43.212;27.908;2022-12-04T09:54:12;10.88;;;3.90;;
71038;SDS011;58692;43.212;27.908;2022-12-04T09:56:42;8.57;;;3.47;;
71038;SDS011;58692;43.212;27.908;2022-12-04T09:59:14;9.88;;;3.90;;
71038;SDS011;58692;43.212;27.908;2022-12-04T10:01:45;9.77;;;3.70;;
71038;SDS011;58692;43.212;27.908;2022-12-04T10:04:15;10.55;;;3.70;;
71038;SDS011;58692;43.212;27.908;2022-12-04T10:09:40;8.53;;;3.83;;
71038;SDS011;58692;43.212;27.908;2022-12-04T10:12:20;7.70;;;3.20;;
71038;SDS011;58692;43.212;27.908;2022-12-04T10:17:58;6.65;;;2.80;;
71038;SDS011;58692;43.212;27.908;2022-12-04T10:20:52;7.97;;;3.20;;
71038;SDS011;58692;43.212;27.908;2022-12-04T10:26:12;9.23;;;3.40;;
71038;SDS011;58692;43.212;27.908;2022-12-04T10:28:42;8.25;;;3.17;;
71038;SDS011;58692;43.212;27.908;2022-12-04T10:31:16;7.93;;;3.40;;
71038;SDS011;58692;43.212;27.908;2022-12-04T10:33:43;9.60;;;3.23;;
71038;SDS011;58692;43.212;27.908;2022-12-04T10:36:16;7.63;;;3.45;;
71038;SDS011;58692;43.212;27.908;2022-12-04T10:38:44;9.30;;;3.50;;
71038;SDS011;58692;43.212;27.908;2022-12-04T10:41:19;8.75;;;3.40;;
71038;SDS011;58692;43.212;27.908;2022-12-04T10:43:46;8.25;;;3.47;;
71038;SDS011;58692;43.212;27.908;2022-12-04T10:46:14;7.33;;;3.40;;
71038;SDS011;58692;43.212;27.908;2022-12-04T10:48:40;8.75;;;4.10;;
71038;SDS011;58692;43.212;27.908;2022-12-04T10:51:15;9.35;;;3.80;;
71038;SDS011;58692;43.212;27.908;2022-12-04T10:53:43;11.15;;;3.92;;
71038;SDS011;58692;43.212;27.908;2022-12-04T10:56:12;9.75;;;4.18;;
71038;SDS011;58692;43.212;27.908;2022-12-04T10:58:42;10.53;;;3.77;;
71038;SDS011;58692;43.212;27.908;2022-12-04T11:01:19;11.73;;;4.10;;
71038;SDS011;58692;43.212;27.908;2022-12-04T11:03:45;9.95;;;4.07;;
71038;SDS011;58692;43.212;27.908;2022-12-04T11:06:22;10.63;;;4.30;;
71038;SDS011;58692;43.212;27.908;2022-12-04T11:08:49;9.80;;;4.20;;
71038;SDS011;58692;43.212;27.908;2022-12-04T11:11:21;8.47;;;3.67;;
71038;SDS011;58692;43.212;27.908;2022-12-04T11:13:59;9.77;;;4.28;;
71038;SDS011;58692;43.212;27.908;2022-12-04T11:16:35;10.27;;;4.65;;
71038;SDS011;58692;43.212;27.908;2022-12-04T11:19:16;9.38;;;4.03;;
71038;SDS011;58692;43.212;27.908;2022-12-04T11:21:44;8.85;;;3.88;;
71038;SDS011;58692;43.212;27.908;2022-12-04T11:24:16;8.90;;;3.50;;
71038;SDS011;58692;43.212;27.908;2022-12-04T11:26:46;8.27;;;3.58;;
71038;SDS011;58692;43.212;27.908;2022-12-04T11:29:12;8.80;;;3.60;;
71038;SDS011;58692;43.212;27.908;2022-12-04T11:31:45;9.35;;;3.75;;
71038;SDS011;58692;43.212;27.908;2022-12-04T11:34:16;8.27;;;3.77;;
71038;SDS011;58692;43.212;27.908;2022-12-04T11:36:46;9.50;;;3.90;;
71038;SDS011;58692;43.212;27.908;2022-12-04T11:39:18;10.35;;;4.22;;
71038;SDS011;58692;43.212;27.908;2022-12-04T11:41:57;10.82;;;4.20;;
71038;SDS011;58692;43.212;27.908;2022-12-04T11:44:27;9.60;;;4.00;;
71038;SDS011;58692;43.212;27.908;2022-12-04T11:46:56;9.33;;;4.10;;
71038;SDS011;58692;43.212;27.908;2022-12-04T11:49:24;10.02;;;3.90;;
71038;SDS011;58692;43.212;27.908;2022-12-04T11:54:33;10.10;;;3.88;;
71038;SDS011;58692;43.212;27.908;2022-12-04T12:02:26;11.50;;;4.45;;
71038;SDS011;58692;43.212;27.908;2022-12-04T12:05:13;8.77;;;3.92;;
71038;SDS011;58692;43.212;27.908;2022-12-04T12:08:02;13.63;;;4.82;;
71038;SDS011;58692;43.212;27.908;2022-12-04T12:13:14;9.53;;;4.30;;
71038;SDS011;58692;43.212;27.908;2022-12-04T12:18:45;12.10;;;4.90;;
71038;SDS011;58692;43.212;27.908;2022-12-04T12:21:51;9.95;;;4.13;;
71038;SDS011;58692;43.212;27.908;2022-12-04T12:24:30;8.55;;;4.28;;
71038;SDS011;58692;43.212;27.908;2022-12-04T12:35:21;9.00;;;4.20;;
71038;SDS011;58692;43.212;27.908;2022-12-04T12:37:55;11.77;;;4.50;;
71038;SDS011;58692;43.212;27.908;2022-12-04T12:40:31;9.30;;;3.80;;
71038;SDS011;58692;43.212;27.908;2022-12-04T12:42:59;8.82;;;3.75;;
71038;SDS011;58692;43.212;27.908;2022-12-04T12:45:33;8.90;;;3.83;;
71038;SDS011;58692;43.212;27.908;2022-12-04T12:48:15;12.95;;;4.65;;
71038;SDS011;58692;43.212;27.908;2022-12-04T12:50:45;10.00;;;4.25;;
71038;SDS011;58692;43.212;27.908;2022-12-04T12:53:17;9.33;;;4.20;;
71038;SDS011;58692;43.212;27.908;2022-12-04T12:55:48;9.93;;;3.65;;
71038;SDS011;58692;43.212;27.908;2022-12-04T13:03:48;12.45;;;5.30;;
71038;SDS011;58692;43.212;27.908;2022-12-04T13:06:17;10.37;;;4.00;;
71038;SDS011;58692;43.212;27.908;2022-12-04T13:11:32;7.80;;;3.13;;
71038;SDS011;58692;43.212;27.908;2022-12-04T13:13:59;9.52;;;3.60;;
71038;SDS011;58692;43.212;27.908;2022-12-04T13:19:37;9.77;;;3.63;;
71038;SDS011;58692;43.212;27.908;2022-12-04T13:27:26;9.07;;;3.72;;
71038;SDS011;58692;43.212;27.908;2022-12-04T13:38:23;8.35;;;3.00;;
71038;SDS011;58692;43.212;27.908;2022-12-04T13:40:56;6.43;;;2.65;;
71038;SDS011;58692;43.212;27.908;2022-12-04T13:43:27;7.07;;;2.72;;
71038;SDS011;58692;43.212;27.908;2022-12-04T13:45:59;6.53;;;2.00;;
71038;SDS011;58692;43.212;27.908;2022-12-04T13:48:30;6.57;;;2.60;;
71038;SDS011;58692;43.212;27.908;2022-12-04T13:51:06;5.75;;;2.28;;
71038;SDS011;58692;43.212;27.908;2022-12-04T13:53:33;6.95;;;2.55;;
71038;SDS011;58692;43.212;27.908;2022-12-04T13:56:01;3.83;;;2.10;;
71038;SDS011;58692;43.212;27.908;2022-12-04T13:58:28;4.87;;;2.20;;
71038;SDS011;58692;43.212;27.908;2022-12-04T14:03:51;6.35;;;2.60;;
71038;SDS011;58692;43.212;27.908;2022-12-04T14:09:04;5.55;;;2.45;;
71038;SDS011;58692;43.212;27.908;2022-12-04T14:11:43;6.23;;;2.57;;
71038;SDS011;58692;43.212;27.908;2022-12-04T14:14:19;6.93;;;2.60;;
71038;SDS011;58692;43.212;27.908;2022-12-04T14:16:49;7.57;;;3.00;;
71038;SDS011;58692;43.212;27.908;2022-12-04T14:21:59;6.47;;;2.55;;
71038;SDS011;58692;43.212;27.908;2022-12-04T14:24:32;7.90;;;2.53;;
71038;SDS011;58692;43.212;27.908;2022-12-04T14:27:02;7.15;;;3.03;;
71038;SDS011;58692;43.212;27.908;2022-12-04T14:29:51;5.63;;;2.50;;
71038;SDS011;58692;43.212;27.908;2022-12-04T14:32:21;7.38;;;3.00;;
71038;SDS011;58692;43.212;27.908;2022-12-04T14:34:49;7.50;;;2.88;;
71038;SDS011;58692;43.212;27.908;2022-12-04T14:37:17;7.27;;;2.97;;
71038;SDS011;58692;43.212;27.908;2022-12-04T14:39:47;5.25;;;2.50;;
71038;SDS011;58692;43.212;27.908;2022-12-04T14:44:45;5.77;;;2.60;;
71038;SDS011;58692;43.212;27.908;2022-12-04T14:58:26;7.00;;;2.60;;
71038;SDS011;58692;43.212;27.908;2022-12-04T15:00:54;6.85;;;2.72;;
71038;SDS011;58692;43.212;27.908;2022-12-04T15:03:22;6.80;;;2.90;;
71038;SDS011;58692;43.212;27.908;2022-12-04T15:05:49;7.10;;;3.15;;
71038;SDS011;58692;43.212;27.908;2022-12-04T15:08:16;7.65;;;2.85;;
71038;SDS011;58692;43.212;27.908;2022-12-04T15:10:47;8.20;;;3.40;;
71038;SDS011;58692;43.212;27.908;2022-12-04T15:13:30;7.45;;;3.10;;
71038;SDS011;58692;43.212;27.908;2022-12-04T15:16:02;9.25;;;3.55;;
71038;SDS011;58692;43.212;27.908;2022-12-04T15:18:32;9.40;;;3.63;;
71038;SDS011;58692;43.212;27.908;2022-12-04T15:20:58;7.37;;;3.30;;
71038;SDS011;58692;43.212;27.908;2022-12-04T15:23:30;8.57;;;3.08;;
71038;SDS011;58692;43.212;27.908;2022-12-04T15:26:03;7.10;;;3.10;;
71038;SDS011;58692;43.212;27.908;2022-12-04T15:28:35;6.68;;;2.90;;
71038;SDS011;58692;43.212;27.908;2022-12-04T15:31:10;6.60;;;3.10;;
71038;SDS011;58692;43.212;27.908;2022-12-04T15:33:40;8.02;;;3.90;;
71038;SDS011;58692;43.212;27.908;2022-12-04T15:36:08;8.95;;;3.60;;
71038;SDS011;58692;43.212;27.908;2022-12-04T15:38:40;7.85;;;3.50;;
71038;SDS011;58692;43.212;27.908;2022-12-04T15:41:20;6.10;;;3.30;;
71038;SDS011;58692;43.212;27.908;2022-12-04T15:43:52;8.50;;;3.85;;
71038;SDS011;58692;43.212;27.908;2022-12-04T15:46:21;7.53;;;3.00;;
71038;SDS011;58692;43.212;27.908;2022-12-04T15:48:49;6.40;;;2.97;;
71038;SDS011;58692;43.212;27.908;2022-12-04T15:51:14;6.78;;;2.83;;
71038;SDS011;58692;43.212;27.908;2022-12-04T15:53:44;6.67;;;3.10;;
71038;SDS011;58692;43.212;27.908;2022-12-04T15:56:19;5.45;;;2.58;;
71038;SDS011;58692;43.212;27.908;2022-12-04T15:58:54;6.45;;;2.83;;
71038;SDS011;58692;43.212;27.908;2022-12-04T16:01:23;5.82;;;2.50;;
71038;SDS011;58692;43.212;27.908;2022-12-04T16:03:51;4.47;;;2.47;;
71038;SDS011;58692;43.212;27.908;2022-12-04T16:08:46;6.25;;;2.63;;
71038;SDS011;58692;43.212;27.908;2022-12-04T16:16:33;5.22;;;2.60;;
71038;SDS011;58692;43.212;27.908;2022-12-04T16:19:01;5.35;;;2.47;;
71038;SDS011;58692;43.212;27.908;2022-12-04T16:21:32;4.78;;;2.20;;
71038;SDS011;58692;43.212;27.908;2022-12-04T16:24:00;5.93;;;2.30;;
71038;SDS011;58692;43.212;27.908;2022-12-04T16:26:27;5.43;;;2.45;;
71038;SDS011;58692;43.212;27.908;2022-12-04T16:28:52;5.70;;;2.20;;
71038;SDS011;58692;43.212;27.908;2022-12-04T16:31:18;5.80;;;2.40;;
71038;SDS011;58692;43.212;27.908;2022-12-04T16:33:47;5.45;;;2.38;;
71038;SDS011;58692;43.212;27.908;2022-12-04T16:36:12;7.53;;;2.50;;